Impacts TAF Board
For situational awareness. Not to be used for flight planning purposes.
IDs:

KSEA - Seattle-Tacoma Intl, WA, US

Issued at 0308 UTC 10 Dec 2018
Updated at 0432 UTC 10 Dec 2018
Potential Impact None Slight Moderate High
Time0419Z 10/05Z 10/06Z 10/07Z 10/08Z 10/09Z 10/10Z 10/11Z 10/12Z 10/13Z 10/14Z 10/15Z 10/16Z 10/17Z>>
Type OBS PRVL PRVL PRVL PRVL PRVL PRVL PRVL PRVL PRVL PRVL PRVL PRVL PRVL
VIS 5 >6 >6 >6 >6 >6 >6 >6 >6 >6 >6 >6 >6 >6
CIG 17 20 20 20 20 20 20 20 20 20 20 20 20 20
Cover OVC OVC OVC OVC OVC OVC OVC OVC OVC OVC OVC OVC OVC OVC
FltCat MVFR MVFR MVFR MVFR MVFR MVFR MVFR MVFR MVFR MVFR MVFR MVFR MVFR MVFR
WX -RA BR VCSH VCSH VCSH VCSH VCSH VCSH VCSH VCSH VCSH VCSH VCSH VCSH VCSH
WDir 140 170 170 170 170 170 170 170 170 170 170 170 170 170
WSpd 7 10 10 10 10 10 10 10 10 10 10 10 10 10
WGst -- -- -- -- -- -- -- -- -- -- -- -- -- --
Raw TAF
KSEA 100308Z 1003/1106 15008KT 6SM -RA BR SCT012 OVC020
  FM100500 17010KT P6SM VCSH SCT012 BKN020 OVC040
  FM102000 19008KT P6SM SCT020 BKN040 BKN120


Raw METAR
KSEA 100419Z 14007KT 5SM -RA BR OVC017 06/04 A3012 RMK AO2 P0002 T00560039
KSEA 100353Z VRB06KT 5SM -RA BR BKN011 OVC020 06/04 A3012 RMK AO2 SLP208 P0005 T00610039
KSEA 100345Z 13004KT 6SM -RA BR SCT008 BKN012 OVC020 06/04 A3012 RMK AO2 P0004 T00560039
KSEA 100323Z 15005KT 6SM -RA BR FEW009 SCT014 OVC022 06/04 A3012 RMK AO2 P0002 T00560039
KSEA 100253Z 16004KT 7SM -RA FEW015 OVC023 06/04 A3011 RMK AO2 SLP204 P0002 60008 T00560039 53008
KSEA 100153Z 14009KT 8SM -RA OVC028 06/04 A3009 RMK AO2 SLP199 P0004 T00610039

METAR Board
Radar Display
Forecast Discussion
For situational awareness. Not to be used for flight planning purposes.